Time;durP1;ratioP1;P1;durP2;ratioP2;P2;SDS_P1;SDS_P2;PMS_P1;PMS_P2;Temp;Humidity;BMP_temperature;BMP_pressure;BME280_temperature;BME280_humidity;BME280_pressure;Samples;Min_cycle;Max_cycle;Signal;HPM_P1;HPM_P2
2021/07/11 00:01:17;;;;;;;7.85;6.47;;;19.80;69.50;;;;;;5054884;28;20021;-79
2021/07/11 00:03:43;;;;;;;7.43;6.60;;;19.90;69.70;;;;;;5073093;28;20495;-77
2021/07/11 00:06:08;;;;;;;6.85;6.05;;;19.80;69.70;;;;;;5055098;28;20060;-79
2021/07/11 00:08:34;;;;;;;6.65;5.95;;;19.80;69.90;;;;;;5072852;28;20032;-79
2021/07/11 00:11:00;;;;;;;9.32;6.68;;;19.80;70.10;;;;;;5054789;28;20116;-79
2021/07/11 00:13:25;;;;;;;8.00;6.50;;;19.80;70.20;;;;;;5072962;28;20491;-79
2021/07/11 00:15:51;;;;;;;9.10;6.70;;;19.80;70.20;;;;;;5072924;28;20365;-79
2021/07/11 00:18:17;;;;;;;9.98;7.18;;;19.80;70.40;;;;;;5057896;28;20021;-79
2021/07/11 00:20:42;;;;;;;9.20;6.55;;;19.80;70.50;;;;;;5058811;28;20020;-79
2021/07/11 00:23:08;;;;;;;7.85;6.53;;;19.80;70.60;;;;;;5073523;28;20032;-79
2021/07/11 00:25:34;;;;;;;8.35;6.80;;;19.80;70.70;;;;;;5058836;28;20107;-79
2021/07/11 00:27:59;;;;;;;7.72;6.40;;;19.80;70.80;;;;;;5076537;28;20025;-79
2021/07/11 00:30:26;;;;;;;6.65;5.30;;;19.80;70.80;;;;;;5058734;28;20107;-79
2021/07/11 00:32:54;;;;;;;6.50;5.38;;;19.80;70.80;;;;;;5058619;28;20032;-79
2021/07/11 00:35:20;;;;;;;7.88;6.05;;;19.80;70.70;;;;;;5058683;28;20162;-79
2021/07/11 00:37:46;;;;;;;6.95;6.05;;;19.90;70.70;;;;;;5058775;28;20066;-79
2021/07/11 00:40:12;;;;;;;7.20;5.85;;;19.90;70.80;;;;;;5076612;28;20032;-79
2021/07/11 00:46:00;;;;;;;7.32;5.93;;;20.00;70.80;;;;;;5076660;28;20051;-78
2021/07/11 00:48:26;;;;;;;7.55;5.90;;;20.00;70.60;;;;;;5058372;28;20020;-79
2021/07/11 00:54:14;;;;;;;7.28;6.40;;;20.10;70.70;;;;;;5076229;28;20083;-79
2021/07/11 00:56:44;;;;;;;7.03;5.80;;;20.20;70.70;;;;;;5058206;28;20028;-78
2021/07/11 00:59:10;;;;;;;6.55;5.78;;;20.20;71.00;;;;;;5057882;28;20021;-78
2021/07/11 01:01:58;;;;;;;7.38;6.47;;;20.20;71.30;;;;;;5055262;28;20060;-78
2021/07/11 01:04:37;;;;;;;8.15;5.78;;;20.20;71.40;;;;;;5076201;28;20381;-78
2021/07/11 01:07:06;;;;;;;6.78;5.93;;;20.20;71.50;;;;;;5057877;28;20025;-77
2021/07/11 01:09:41;;;;;;;6.05;5.43;;;20.10;71.60;;;;;;5057733;28;20141;-78
2021/07/11 01:12:15;;;;;;;6.63;5.90;;;20.20;71.80;;;;;;5075735;28;20020;-78
2021/07/11 01:14:43;;;;;;;8.45;6.25;;;20.10;72.00;;;;;;5072421;28;20067;-77
2021/07/11 01:17:10;;;;;;;7.63;6.20;;;20.10;72.00;;;;;;5054843;28;20032;-78
2021/07/11 01:19:38;;;;;;;7.40;6.47;;;20.10;72.10;;;;;;5075248;28;20044;-77
2021/07/11 01:22:08;;;;;;;7.88;6.03;;;20.00;72.10;;;;;;5057546;28;20017;-76
2021/07/11 01:24:35;;;;;;;7.13;5.88;;;20.00;72.30;;;;;;5057467;28;20556;-77
2021/07/11 01:27:03;;;;;;;6.30;5.53;;;20.00;72.50;;;;;;5057935;28;20020;-77
2021/07/11 01:29:29;;;;;;;6.95;6.00;;;20.00;72.60;;;;;;5057103;28;20024;-77
2021/07/11 01:31:55;;;;;;;7.53;5.80;;;20.00;72.70;;;;;;5057331;28;20017;-79
2021/07/11 01:34:23;;;;;;;8.38;6.60;;;20.00;72.80;;;;;;5057453;28;20020;-78
2021/07/11 01:36:50;;;;;;;8.77;6.43;;;20.10;73.00;;;;;;5054658;28;20029;-77
2021/07/11 01:39:16;;;;;;;6.97;6.28;;;20.10;73.00;;;;;;5057253;28;20070;-77
2021/07/11 01:41:45;;;;;;;6.95;6.25;;;20.10;73.00;;;;;;5075566;28;20027;-78
2021/07/11 01:44:11;;;;;;;8.68;6.70;;;20.00;73.00;;;;;;5057130;28;20029;-77
2021/07/11 01:46:40;;;;;;;7.57;6.50;;;20.10;73.10;;;;;;5056987;28;20028;-77
2021/07/11 01:49:06;;;;;;;6.93;6.22;;;20.00;73.20;;;;;;5054421;28;20032;-77
2021/07/11 01:51:32;;;;;;;7.95;6.40;;;20.10;73.30;;;;;;5057078;28;20085;-77
2021/07/11 01:53:59;;;;;;;7.18;5.82;;;20.10;73.30;;;;;;5056929;28;20024;-77
2021/07/11 01:56:25;;;;;;;7.18;6.25;;;20.10;73.40;;;;;;5056667;28;20484;-78
2021/07/11 01:58:51;;;;;;;8.13;6.25;;;20.10;73.50;;;;;;5056794;28;20040;-77
2021/07/11 02:01:18;;;;;;;7.43;6.40;;;20.10;73.40;;;;;;5056793;28;20033;-79
2021/07/11 02:03:44;;;;;;;6.70;6.00;;;20.10;73.50;;;;;;5056732;28;20048;-76
2021/07/11 02:06:11;;;;;;;7.85;7.00;;;20.00;73.50;;;;;;5056695;28;20040;-77
2021/07/11 02:08:39;;;;;;;8.73;6.60;;;20.00;73.70;;;;;;5056695;28;20021;-77
2021/07/11 02:11:05;;;;;;;7.47;6.72;;;19.90;73.90;;;;;;5056664;28;20036;-77
2021/07/11 02:13:42;;;;;;;8.70;7.47;;;19.90;74.30;;;;;;5056775;28;20033;-78
2021/07/11 02:16:17;;;;;;;9.07;7.22;;;19.80;74.20;;;;;;5056499;28;20013;-78
2021/07/11 02:18:43;;;;;;;7.72;6.90;;;19.80;74.30;;;;;;5050216;28;20039;-78
2021/07/11 02:21:09;;;;;;;7.50;6.70;;;19.70;74.30;;;;;;5036332;28;20029;-78
2021/07/11 02:23:36;;;;;;;7.47;6.78;;;19.70;74.40;;;;;;5036341;28;20396;-77
2021/07/11 02:26:05;;;;;;;7.85;7.00;;;19.70;74.50;;;;;;5036376;28;20536;-77
2021/07/11 02:28:34;;;;;;;9.43;7.45;;;19.70;74.60;;;;;;5036155;28;20017;-77
2021/07/11 02:31:02;;;;;;;7.78;6.97;;;19.70;74.70;;;;;;5054276;28;20039;-77
2021/07/11 02:33:37;;;;;;;8.32;7.05;;;19.70;74.80;;;;;;5036158;28;20045;-77
2021/07/11 02:36:09;;;;;;;9.15;7.30;;;19.70;74.80;;;;;;5034510;28;20028;-77
2021/07/11 02:39:06;;;;;;;9.23;8.15;;;19.70;74.90;;;;;;5036005;28;20067;-77
2021/07/11 02:41:33;;;;;;;8.40;7.38;;;19.70;75.10;;;;;;5035543;28;20017;-78
2021/07/11 02:44:01;;;;;;;7.95;7.15;;;19.60;75.10;;;;;;5035983;28;20028;-78
2021/07/11 02:46:32;;;;;;;8.45;7.63;;;19.60;75.20;;;;;;5053805;28;20021;-78
2021/07/11 02:52:21;;;;;;;10.50;8.07;;;19.60;75.70;;;;;;5053958;28;20091;-77
2021/07/11 02:54:59;;;;;;;7.97;7.10;;;19.60;75.80;;;;;;5036102;28;20017;-78
2021/07/11 02:57:30;;;;;;;9.50;8.10;;;19.50;76.00;;;;;;5035664;28;20032;-78
2021/07/11 02:59:57;;;;;;;11.60;8.55;;;19.60;76.20;;;;;;5035729;28;20048;-77
2021/07/11 03:02:25;;;;;;;9.18;7.65;;;19.50;76.30;;;;;;5035656;28;20029;-78
2021/07/11 03:04:51;;;;;;;9.68;8.13;;;19.50;76.60;;;;;;5035591;28;20032;-77
2021/07/11 03:07:17;;;;;;;9.68;8.23;;;19.50;76.90;;;;;;5053329;28;20385;-77
2021/07/11 03:09:43;;;;;;;9.68;8.48;;;19.50;77.30;;;;;;5035515;28;20033;-76
2021/07/11 03:12:15;;;;;;;9.98;8.15;;;19.40;78.10;;;;;;5035325;28;20036;-76
2021/07/11 03:14:41;;;;;;;10.65;8.38;;;19.40;77.70;;;;;;5035370;28;20032;-78
2021/07/11 03:17:08;;;;;;;9.25;8.25;;;19.40;77.90;;;;;;5053332;28;20025;-76
2021/07/11 03:19:39;;;;;;;10.30;8.02;;;19.30;78.00;;;;;;5035219;28;20128;-76
2021/07/11 03:22:05;;;;;;;10.65;8.55;;;19.40;78.20;;;;;;5035247;28;20024;-76
2021/07/11 03:24:31;;;;;;;9.80;8.77;;;19.40;78.20;;;;;;5035286;28;20091;-76
2021/07/11 03:26:58;;;;;;;11.63;8.63;;;19.30;78.50;;;;;;5035161;28;20021;-77
2021/07/11 03:29:35;;;;;;;9.93;8.85;;;19.40;78.60;;;;;;5035479;28;20048;-77
2021/07/11 03:32:01;;;;;;;9.85;8.85;;;19.30;78.90;;;;;;5035515;28;20031;-76
2021/07/11 03:34:33;;;;;;;10.15;9.02;;;19.30;78.90;;;;;;5035128;28;20045;-76
2021/07/11 03:37:07;;;;;;;9.80;8.80;;;19.30;79.20;;;;;;5053078;28;20029;-76
2021/07/11 03:39:39;;;;;;;10.05;8.27;;;19.30;79.20;;;;;;5035045;28;20021;-77
2021/07/11 03:42:10;;;;;;;11.68;9.85;;;19.30;79.10;;;;;;5035073;28;20029;-77
2021/07/11 03:44:40;;;;;;;9.32;8.32;;;19.30;79.30;;;;;;5034902;28;20021;-76
2021/07/11 03:47:09;;;;;;;13.50;9.65;;;19.20;79.20;;;;;;5035061;28;20025;-77
2021/07/11 03:49:39;;;;;;;10.60;9.30;;;19.20;79.30;;;;;;5034964;28;20025;-77
2021/07/11 03:52:06;;;;;;;10.95;8.65;;;19.20;79.50;;;;;;5034769;28;20096;-77
2021/07/11 03:54:37;;;;;;;9.10;8.18;;;19.20;79.60;;;;;;5034757;28;20036;-77
2021/07/11 03:57:07;;;;;;;9.88;8.57;;;19.10;79.60;;;;;;5052736;28;20481;-76
2021/07/11 03:59:34;;;;;;;8.60;7.65;;;19.10;79.70;;;;;;5034775;28;20060;-77
2021/07/11 04:02:05;;;;;;;9.80;8.80;;;19.10;79.90;;;;;;5034723;28;20025;-77
2021/07/11 04:04:32;;;;;;;9.02;8.13;;;19.00;80.00;;;;;;5052506;28;20112;-77
2021/07/11 04:06:58;;;;;;;9.02;8.13;;;19.00;80.00;;;;;;5034766;28;20537;-77
2021/07/11 04:09:25;;;;;;;9.07;8.15;;;19.00;80.00;;;;;;5034748;28;20473;-77
2021/07/11 04:11:52;;;;;;;10.93;9.05;;;19.00;80.10;;;;;;5034848;28;20025;-77
2021/07/11 04:14:19;;;;;;;10.18;8.82;;;19.00;80.10;;;;;;5052445;28;20021;-77
2021/07/11 04:16:55;;;;;;;11.25;9.55;;;19.00;80.20;;;;;;5034801;28;20028;-77
2021/07/11 04:19:26;;;;;;;10.80;9.25;;;18.90;80.20;;;;;;5045598;28;20039;-78
2021/07/11 04:21:54;;;;;;;9.48;8.48;;;18.90;80.40;;;;;;5072378;28;20487;-77
2021/07/11 04:24:23;;;;;;;11.45;10.10;;;18.90;80.50;;;;;;5054488;28;20020;-77
2021/07/11 04:26:51;;;;;;;11.10;9.95;;;18.90;80.50;;;;;;5054539;28;20035;-77
2021/07/11 04:29:17;;;;;;;11.65;9.85;;;18.80;80.50;;;;;;5054793;28;20468;-77
2021/07/11 04:31:46;;;;;;;11.65;9.60;;;18.80;80.60;;;;;;5054523;28;20477;-77
2021/07/11 04:34:27;;;;;;;12.00;9.77;;;18.80;80.70;;;;;;5072440;28;20042;-77
2021/07/11 04:36:54;;;;;;;10.63;9.52;;;18.80;80.80;;;;;;5072384;28;20027;-78
2021/07/11 04:39:20;;;;;;;9.95;8.95;;;18.80;80.70;;;;;;5054673;28;20021;-77
2021/07/11 04:41:46;;;;;;;10.40;9.40;;;18.80;80.70;;;;;;5072364;28;20016;-77
2021/07/11 04:44:12;;;;;;;10.98;9.65;;;18.80;80.80;;;;;;5054639;28;20411;-78
2021/07/11 04:46:38;;;;;;;11.70;9.82;;;18.80;80.80;;;;;;5054285;28;20012;-77
2021/07/11 04:49:05;;;;;;;10.52;9.50;;;18.90;80.90;;;;;;5054489;28;20013;-77
2021/07/11 04:51:32;;;;;;;10.68;9.40;;;18.90;80.90;;;;;;5072260;28;20020;-77
2021/07/11 04:53:59;;;;;;;10.60;9.50;;;18.90;80.90;;;;;;5054333;28;20452;-77
2021/07/11 04:56:25;;;;;;;10.93;9.77;;;18.90;80.80;;;;;;5072283;28;20108;-77
2021/07/11 04:58:50;;;;;;;10.88;9.43;;;19.00;80.80;;;;;;5054529;28;20029;-77
2021/07/11 05:01:53;;;;;;;11.35;9.95;;;18.90;80.80;;;;;;5054256;28;20090;-76
2021/07/11 05:04:22;;;;;;;10.27;8.85;;;18.90;80.80;;;;;;5074958;28;20056;-77
2021/07/11 05:06:47;;;;;;;11.40;9.75;;;18.90;80.70;;;;;;5075807;28;20072;-76
2021/07/11 05:09:13;;;;;;;11.07;9.80;;;18.90;80.80;;;;;;5057647;28;20028;-77
2021/07/11 05:11:39;;;;;;;11.15;9.93;;;18.80;80.90;;;;;;5076064;28;20024;-77
2021/07/11 05:14:05;;;;;;;10.80;9.70;;;18.80;80.90;;;;;;5075621;28;20028;-77
2021/07/11 05:16:32;;;;;;;10.52;9.05;;;18.80;81.00;;;;;;5057710;28;20448;-76
2021/07/11 05:18:57;;;;;;;10.13;9.07;;;18.90;81.10;;;;;;5075422;28;20041;-77
2021/07/11 05:21:23;;;;;;;11.15;9.82;;;18.90;81.10;;;;;;5057641;28;20468;-77
2021/07/11 05:23:49;;;;;;;10.88;9.52;;;18.90;81.10;;;;;;5057537;28;20051;-77
2021/07/11 05:26:15;;;;;;;10.80;9.70;;;19.00;81.10;;;;;;5057406;28;20020;-78
2021/07/11 05:28:41;;;;;;;11.90;10.20;;;19.10;81.10;;;;;;5057421;28;20179;-77
2021/07/11 05:31:08;;;;;;;10.20;9.10;;;19.10;81.00;;;;;;5057378;28;20035;-76
2021/07/11 05:33:34;;;;;;;10.18;9.18;;;19.20;81.40;;;;;;5057255;28;20027;-77
2021/07/11 05:36:00;;;;;;;10.68;9.52;;;19.20;81.00;;;;;;5057289;28;20029;-76
2021/07/11 05:38:29;;;;;;;10.70;8.85;;;19.20;81.00;;;;;;5057264;28;20025;-76
2021/07/11 05:40:54;;;;;;;11.25;9.35;;;19.20;81.00;;;;;;5057245;28;20024;-76
2021/07/11 05:43:20;;;;;;;10.50;9.40;;;19.30;80.90;;;;;;5075034;28;20116;-76
2021/07/11 05:45:46;;;;;;;10.73;9.48;;;19.30;81.00;;;;;;5057460;28;20123;-77
2021/07/11 05:48:11;;;;;;;10.38;9.10;;;19.40;80.90;;;;;;5057154;28;20032;-77
2021/07/11 05:50:38;;;;;;;11.30;9.30;;;19.40;80.90;;;;;;5074727;28;20480;-77
2021/07/11 05:53:04;;;;;;;9.23;8.27;;;19.50;80.90;;;;;;5056873;28;20043;-77
2021/07/11 05:55:30;;;;;;;9.60;8.60;;;19.50;80.80;;;;;;5056971;28;20016;-78
2021/07/11 05:57:55;;;;;;;9.32;8.38;;;19.50;80.70;;;;;;5056867;28;20025;-78
2021/07/11 06:00:21;;;;;;;10.20;9.10;;;19.50;80.60;;;;;;5056766;28;20544;-78
2021/07/11 06:02:47;;;;;;;10.30;9.25;;;19.50;80.90;;;;;;5056787;28;20060;-77
2021/07/11 06:05:12;;;;;;;11.40;9.50;;;19.60;80.60;;;;;;5056734;28;20051;-77
2021/07/11 06:07:39;;;;;;;10.57;9.43;;;19.60;80.60;;;;;;5074725;28;20421;-76
2021/07/11 06:10:06;;;;;;;10.77;9.68;;;19.60;80.60;;;;;;5056657;28;20488;-78
2021/07/11 06:12:32;;;;;;;11.00;9.45;;;19.60;80.60;;;;;;5074463;28;20100;-77
2021/07/11 06:14:58;;;;;;;11.50;9.40;;;19.60;80.60;;;;;;5073376;28;20048;-77
2021/07/11 06:17:24;;;;;;;10.88;8.82;;;19.60;80.70;;;;;;5074439;28;20019;-77
2021/07/11 06:19:49;;;;;;;12.75;9.52;;;19.70;80.80;;;;;;5056373;28;20496;-77
2021/07/11 06:22:15;;;;;;;9.43;8.52;;;19.70;80.80;;;;;;5056162;28;20021;-76
2021/07/11 06:24:41;;;;;;;10.00;8.90;;;19.70;80.80;;;;;;5056338;28;20115;-77
2021/07/11 06:27:06;;;;;;;10.13;9.13;;;19.60;80.70;;;;;;5056352;28;20473;-77
2021/07/11 06:29:32;;;;;;;11.50;9.73;;;19.60;80.80;;;;;;5056205;28;20487;-77
2021/07/11 06:31:58;;;;;;;10.60;9.43;;;19.60;80.80;;;;;;5074006;28;20023;-77
2021/07/11 06:34:23;;;;;;;10.48;9.38;;;19.60;80.90;;;;;;5056022;28;20207;-78
2021/07/11 06:36:49;;;;;;;11.73;10.10;;;19.60;80.90;;;;;;5056162;28;20086;-76
2021/07/11 06:39:14;;;;;;;11.13;8.95;;;19.70;81.00;;;;;;5073957;28;20035;-77
2021/07/11 06:41:40;;;;;;;10.98;9.77;;;19.60;81.00;;;;;;5074015;28;20029;-77
2021/07/11 06:44:06;;;;;;;10.40;9.30;;;19.70;81.00;;;;;;5073817;28;20024;-77
2021/07/11 06:46:31;;;;;;;9.45;8.48;;;19.70;81.00;;;;;;5055974;28;20032;-79
2021/07/11 06:48:57;;;;;;;10.82;9.63;;;19.70;80.90;;;;;;5055962;28;20107;-79
2021/07/11 06:51:22;;;;;;;10.60;9.05;;;19.80;81.00;;;;;;5055894;28;20024;-77
2021/07/11 06:53:48;;;;;;;10.93;9.35;;;19.80;80.90;;;;;;5073731;28;20023;-76
2021/07/11 06:56:13;;;;;;;9.55;8.63;;;19.90;80.90;;;;;;5055947;28;20031;-76
2021/07/11 06:58:39;;;;;;;12.20;9.95;;;19.90;80.80;;;;;;5055804;28;20029;-77
2021/07/11 07:01:08;;;;;;;10.65;9.55;;;20.00;80.70;;;;;;5055935;28;20020;-77
2021/07/11 07:03:34;;;;;;;11.20;10.05;;;20.10;80.80;;;;;;5055581;28;20025;-77
2021/07/11 07:05:59;;;;;;;11.25;10.05;;;20.10;80.60;;;;;;5052623;28;20038;-77
2021/07/11 07:08:25;;;;;;;10.88;9.82;;;20.20;80.60;;;;;;5055628;28;20021;-77
2021/07/11 07:10:52;;;;;;;12.40;11.10;;;20.10;80.50;;;;;;5055420;28;20052;-77
2021/07/11 07:13:20;;;;;;;13.15;11.10;;;20.20;80.40;;;;;;5073300;28;20032;-78
2021/07/11 07:15:45;;;;;;;14.55;11.15;;;20.20;80.40;;;;;;5052844;28;20027;-81
2021/07/11 07:18:11;;;;;;;11.43;10.32;;;20.20;80.40;;;;;;5073193;28;20535;-78
2021/07/11 07:20:37;;;;;;;13.35;11.95;;;20.20;80.30;;;;;;5055616;28;20538;-77
2021/07/11 07:23:03;;;;;;;12.40;10.80;;;20.20;80.20;;;;;;5055112;28;20028;-77
2021/07/11 07:25:28;;;;;;;11.48;10.27;;;20.20;80.30;;;;;;5072885;28;20029;-76
2021/07/11 07:27:54;;;;;;;13.05;11.75;;;20.20;80.30;;;;;;5055118;28;20384;-77
2021/07/11 07:30:20;;;;;;;11.63;10.43;;;20.30;80.20;;;;;;5073264;28;20107;-76
2021/07/11 07:32:48;;;;;;;11.65;10.45;;;20.40;80.10;;;;;;5073061;28;20033;-75
2021/07/11 07:35:16;;;;;;;10.82;9.52;;;20.50;79.90;;;;;;5073273;28;20028;-78
2021/07/11 07:37:41;;;;;;;11.73;10.43;;;20.60;79.70;;;;;;5055045;28;20021;-76
2021/07/11 07:40:07;;;;;;;13.30;11.20;;;20.80;79.40;;;;;;5072942;28;20020;-75
2021/07/11 07:42:33;;;;;;;10.38;9.27;;;20.90;79.20;;;;;;5073162;28;20484;-77
2021/07/11 07:44:59;;;;;;;11.05;9.93;;;20.90;78.90;;;;;;5054911;28;20436;-78
2021/07/11 07:47:25;;;;;;;11.80;10.60;;;21.00;78.70;;;;;;5055070;28;20025;-77
2021/07/11 07:49:51;;;;;;;12.15;10.43;;;21.00;78.60;;;;;;5054981;28;20028;-77
2021/07/11 07:52:17;;;;;;;11.50;10.30;;;21.00;78.60;;;;;;5054759;28;20348;-77
2021/07/11 07:54:43;;;;;;;13.38;10.30;;;21.10;78.40;;;;;;5054927;28;20023;-76
2021/07/11 07:57:08;;;;;;;12.20;10.38;;;21.10;78.20;;;;;;5054990;28;20028;-77
2021/07/11 07:59:34;;;;;;;11.50;10.10;;;21.10;77.80;;;;;;5072862;28;20468;-77
2021/07/11 08:02:00;;;;;;;11.90;10.68;;;21.10;77.70;;;;;;5054583;28;20074;-77
2021/07/11 08:04:25;;;;;;;11.40;10.30;;;21.10;77.80;;;;;;5072832;28;20028;-76
2021/07/11 08:06:51;;;;;;;10.88;9.77;;;21.10;77.80;;;;;;5054691;28;20082;-77
2021/07/11 08:09:17;;;;;;;11.88;10.68;;;21.10;77.80;;;;;;5054566;28;20024;-77
2021/07/11 08:11:44;;;;;;;13.32;11.90;;;21.10;77.90;;;;;;5072818;28;20107;-77
2021/07/11 08:14:10;;;;;;;12.43;11.20;;;21.10;77.90;;;;;;5054601;28;20074;-78
2021/07/11 08:16:35;;;;;;;13.70;11.88;;;21.10;77.90;;;;;;5072719;28;20488;-76
2021/07/11 08:19:01;;;;;;;13.32;11.98;;;21.00;77.70;;;;;;5054661;28;20045;-76
2021/07/11 08:21:30;;;;;;;14.77;12.07;;;21.00;77.70;;;;;;5072880;28;20069;-80
2021/07/11 08:23:56;;;;;;;15.27;12.77;;;20.90;77.80;;;;;;5055804;28;20024;-83
2021/07/11 08:26:22;;;;;;;13.35;11.65;;;20.80;77.90;;;;;;5055393;28;20028;-83
2021/07/11 08:28:47;;;;;;;12.77;11.48;;;20.70;77.90;;;;;;5055799;28;20525;-83
2021/07/11 08:31:13;;;;;;;14.05;12.60;;;20.70;78.50;;;;;;5073778;28;20119;-83
2021/07/11 08:33:39;;;;;;;13.65;11.77;;;20.60;77.90;;;;;;5055518;28;20531;-84
2021/07/11 08:36:05;;;;;;;13.38;11.30;;;20.60;78.00;;;;;;5056327;28;20029;-84
2021/07/11 08:38:31;;;;;;;12.52;10.82;;;20.50;78.00;;;;;;5058284;28;20055;-83
2021/07/11 08:40:56;;;;;;;13.70;12.40;;;20.50;78.10;;;;;;5059716;28;20020;-81
2021/07/11 08:43:24;;;;;;;13.20;11.80;;;20.60;78.20;;;;;;5060073;28;20187;-83
2021/07/11 08:45:49;;;;;;;13.30;11.05;;;20.50;78.10;;;;;;5076969;28;20454;-80
2021/07/11 08:48:15;;;;;;;12.50;10.70;;;20.50;78.00;;;;;;5059227;28;20025;-79
2021/07/11 08:50:41;;;;;;;13.75;11.85;;;20.40;78.10;;;;;;5058899;28;20111;-75
2021/07/11 08:53:14;;;;;;;13.02;11.45;;;20.40;78.30;;;;;;5058491;28;20116;-73
2021/07/11 08:55:41;;;;;;;13.45;11.68;;;20.40;78.30;;;;;;5058258;28;20032;-73
2021/07/11 08:58:07;;;;;;;12.35;10.80;;;20.40;78.40;;;;;;5058125;28;20032;-73
2021/07/11 09:00:34;;;;;;;11.68;10.52;;;20.40;78.50;;;;;;5057986;28;20510;-73
2021/07/11 09:03:01;;;;;;;13.73;12.10;;;20.40;78.50;;;;;;5075823;28;20557;-73
2021/07/11 09:05:30;;;;;;;13.68;11.98;;;20.50;78.60;;;;;;5076036;28;20503;-74
2021/07/11 09:08:05;;;;;;;13.60;11.18;;;20.40;78.60;;;;;;5057795;28;20028;-73
2021/07/11 09:10:37;;;;;;;12.15;10.80;;;20.50;78.60;;;;;;5057914;28;20560;-73
2021/07/11 09:13:09;;;;;;;13.38;11.52;;;20.60;78.50;;;;;;5057963;28;20488;-74
2021/07/11 09:15:36;;;;;;;;;;;20.60;78.20;;;;;;5058135;28;20068;-74
2021/07/11 09:21:24;;;;;;;11.93;10.50;;;20.70;77.90;;;;;;5072537;28;20048;-75
2021/07/11 09:23:49;;;;;;;10.77;9.65;;;20.80;77.80;;;;;;5075450;28;20040;-75
2021/07/11 09:26:17;;;;;;;10.90;9.10;;;20.90;77.60;;;;;;5057955;28;20119;-76
2021/07/11 09:28:51;;;;;;;11.57;9.98;;;21.00;77.40;;;;;;5057578;28;20024;-74
2021/07/11 09:31:19;;;;;;;11.75;9.60;;;21.20;77.10;;;;;;5057544;28;20034;-73
2021/07/11 09:33:54;;;;;;;10.77;9.65;;;21.40;76.70;;;;;;5057779;28;20037;-73
2021/07/11 09:36:25;;;;;;;10.60;9.50;;;21.50;76.30;;;;;;5057309;28;20506;-73
2021/07/11 09:38:59;;;;;;;11.77;10.57;;;21.60;76.00;;;;;;5057402;28;20025;-74
2021/07/11 09:41:27;;;;;;;11.15;10.05;;;21.80;75.70;;;;;;5073852;28;20439;-74
2021/07/11 09:43:55;;;;;;;11.57;10.10;;;21.90;75.30;;;;;;5075275;28;20032;-74
2021/07/11 09:46:21;;;;;;;10.60;9.52;;;22.00;75.10;;;;;;5075150;28;20040;-74
2021/07/11 09:48:48;;;;;;;10.50;9.38;;;22.10;75.10;;;;;;5075235;28;20024;-73
2021/07/11 09:51:13;;;;;;;10.80;9.55;;;22.20;74.70;;;;;;5057153;28;20123;-74
2021/07/11 09:53:39;;;;;;;11.18;9.05;;;22.30;74.60;;;;;;5075320;28;20442;-73
2021/07/11 09:56:05;;;;;;;10.98;9.80;;;22.30;74.50;;;;;;5056910;28;20378;-73
2021/07/11 09:58:33;;;;;;;9.85;8.82;;;22.40;74.50;;;;;;5057068;28;20083;-74
2021/07/11 10:00:58;;;;;;;11.27;10.07;;;22.40;74.30;;;;;;5057176;28;20427;-73
2021/07/11 10:03:24;;;;;;;11.40;10.20;;;22.50;74.80;;;;;;5074837;28;20039;-73
2021/07/11 10:05:50;;;;;;;12.55;10.82;;;22.40;74.00;;;;;;5056472;28;20036;-74
2021/07/11 10:08:16;;;;;;;12.35;11.05;;;22.40;73.90;;;;;;5074515;28;20038;-75
2021/07/11 10:10:42;;;;;;;12.25;10.48;;;22.50;73.80;;;;;;5074486;28;20028;-75
2021/07/11 10:13:08;;;;;;;12.27;10.90;;;22.50;73.60;;;;;;5056946;28;20082;-75
2021/07/11 10:15:36;;;;;;;12.65;10.93;;;22.60;73.00;;;;;;5056762;28;20028;-76
2021/07/11 10:18:09;;;;;;;12.63;11.13;;;22.60;72.90;;;;;;5056407;28;20166;-76
2021/07/11 10:20:42;;;;;;;12.05;10.30;;;22.50;72.60;;;;;;5074584;28;20029;-76
2021/07/11 10:23:09;;;;;;;11.45;9.50;;;22.50;72.60;;;;;;5052947;28;20052;-74
2021/07/11 10:25:36;;;;;;;9.88;8.88;;;22.60;72.70;;;;;;5056317;28;20028;-75
2021/07/11 10:28:11;;;;;;;10.70;9.15;;;22.70;72.50;;;;;;5074246;28;20028;-75
2021/07/11 10:30:41;;;;;;;10.80;9.70;;;22.80;72.30;;;;;;5074212;28;20029;-77
2021/07/11 10:33:13;;;;;;;9.52;8.52;;;22.90;71.80;;;;;;5056019;28;20392;-77
2021/07/11 10:35:52;;;;;;;10.10;8.68;;;23.00;71.60;;;;;;5074020;28;20518;-77
2021/07/11 10:38:29;;;;;;;8.27;7.40;;;23.10;71.30;;;;;;5056100;28;20059;-76
2021/07/11 10:40:55;;;;;;;7.07;6.38;;;23.30;70.90;;;;;;5056187;28;20028;-76
2021/07/11 10:43:20;;;;;;;9.00;7.78;;;23.50;70.70;;;;;;5056288;28;20028;-76
2021/07/11 10:45:48;;;;;;;9.23;8.32;;;23.70;70.20;;;;;;5056202;28;20040;-75
2021/07/11 10:48:14;;;;;;;8.98;8.07;;;23.90;69.70;;;;;;5073792;28;20475;-77
2021/07/11 10:50:43;;;;;;;9.95;8.88;;;24.00;69.10;;;;;;5073823;28;20031;-77
2021/07/11 10:53:17;;;;;;;10.02;8.32;;;24.10;68.50;;;;;;5056156;28;20083;-77
2021/07/11 10:55:44;;;;;;;10.60;9.07;;;24.10;68.30;;;;;;5055770;28;20020;-74
2021/07/11 10:58:18;;;;;;;11.73;10.18;;;24.10;68.10;;;;;;5055828;28;20425;-74
2021/07/11 11:00:45;;;;;;;10.77;9.13;;;24.10;67.80;;;;;;5072952;28;20028;-74
2021/07/11 11:03:19;;;;;;;10.32;8.80;;;24.10;67.80;;;;;;5055557;28;20024;-74
2021/07/11 11:05:47;;;;;;;8.05;7.22;;;24.10;67.80;;;;;;5073514;28;20170;-76
2021/07/11 11:08:19;;;;;;;9.65;8.50;;;24.00;67.70;;;;;;5055597;28;20033;-73
2021/07/11 11:10:46;;;;;;;8.35;7.53;;;24.00;67.60;;;;;;5055451;28;20504;-74
2021/07/11 11:13:25;;;;;;;8.63;7.72;;;24.00;67.50;;;;;;5055455;28;20024;-74
2021/07/11 11:15:59;;;;;;;9.00;7.85;;;24.10;67.50;;;;;;5055312;28;20038;-75
2021/07/11 11:18:31;;;;;;;9.68;7.35;;;24.30;67.40;;;;;;5055293;28;20024;-76
2021/07/11 11:21:17;;;;;;;6.25;5.65;;;24.40;66.90;;;;;;5073283;28;20025;-75
2021/07/11 11:23:55;;;;;;;5.60;5.10;;;24.50;66.30;;;;;;5053883;28;20041;-76
2021/07/11 11:26:26;;;;;;;6.28;5.68;;;24.60;66.00;;;;;;5035355;28;20029;-75
2021/07/11 11:28:55;;;;;;;6.85;5.93;;;24.70;66.30;;;;;;5035331;28;20447;-75
2021/07/11 11:31:32;;;;;;;7.63;6.53;;;24.70;65.30;;;;;;5052920;28;20024;-74
2021/07/11 11:34:00;;;;;;;7.38;6.68;;;24.70;65.00;;;;;;5035138;28;20033;-75
2021/07/11 11:36:48;;;;;;;8.45;7.65;;;24.70;65.00;;;;;;5035384;28;20485;-75
2021/07/11 11:39:24;;;;;;;8.00;7.20;;;24.70;64.70;;;;;;5035474;28;20048;-75
2021/07/11 11:41:50;;;;;;;8.20;7.40;;;24.70;64.80;;;;;;5052907;28;20140;-76
2021/07/11 11:44:21;;;;;;;8.45;7.55;;;24.70;65.00;;;;;;5034944;28;20501;-75
2021/07/11 11:46:48;;;;;;;10.15;9.05;;;24.70;65.10;;;;;;5052929;28;20025;-75
2021/07/11 11:49:19;;;;;;;10.45;9.35;;;24.70;64.80;;;;;;5035074;28;20453;-75
2021/07/11 11:51:56;;;;;;;8.68;7.57;;;24.70;64.40;;;;;;5034889;28;20083;-76
2021/07/11 11:54:42;;;;;;;8.20;7.35;;;24.70;64.70;;;;;;5052694;28;20036;-77
2021/07/11 11:57:09;;;;;;;6.65;5.95;;;24.80;64.50;;;;;;5034803;28;20039;-74
2021/07/11 11:59:36;;;;;;;6.55;5.95;;;25.00;64.60;;;;;;5052696;28;20018;-75
2021/07/11 12:02:04;;;;;;;8.32;7.10;;;25.10;63.00;;;;;;5034680;28;20025;-75
2021/07/11 12:04:31;;;;;;;6.97;6.28;;;25.10;62.50;;;;;;5052557;28;20032;-75
2021/07/11 12:06:59;;;;;;;6.95;6.20;;;25.20;62.60;;;;;;5034791;28;20450;-75
2021/07/11 12:09:27;;;;;;;6.78;5.97;;;25.20;62.40;;;;;;5052640;28;20404;-75
2021/07/11 12:11:58;;;;;;;6.70;6.00;;;25.30;62.40;;;;;;5035442;28;20033;-75
2021/07/11 12:14:24;;;;;;;7.57;6.82;;;25.30;62.20;;;;;;5056592;28;20033;-76
2021/07/11 12:17:17;;;;;;;7.75;6.90;;;25.40;62.10;;;;;;5038879;28;20476;-76
2021/07/11 12:19:52;;;;;;;5.97;5.38;;;25.40;61.60;;;;;;5038659;28;20053;-76
2021/07/11 12:22:38;;;;;;;6.70;5.82;;;25.40;61.70;;;;;;5045977;28;20059;-75
2021/07/11 12:25:18;;;;;;;6.30;5.38;;;25.40;61.60;;;;;;5076619;28;20104;-75
2021/07/11 12:27:48;;;;;;;7.15;6.45;;;25.40;61.60;;;;;;5076525;28;20497;-75
2021/07/11 12:30:17;;;;;;;6.72;6.07;;;25.50;61.40;;;;;;5058402;28;20029;-76
2021/07/11 12:32:46;;;;;;;7.10;6.40;;;25.50;61.00;;;;;;5058168;28;20036;-75
2021/07/11 12:35:14;;;;;;;6.50;5.90;;;25.40;60.90;;;;;;5076753;28;20036;-75
2021/07/11 12:37:58;;;;;;;6.05;5.45;;;25.40;60.90;;;;;;5058256;28;20398;-75
2021/07/11 12:40:30;;;;;;;5.43;4.93;;;25.50;60.90;;;;;;5076314;28;20541;-77
2021/07/11 12:43:08;;;;;;;5.93;5.20;;;25.60;60.60;;;;;;5076263;28;20488;-77
2021/07/11 12:45:37;;;;;;;6.15;5.22;;;25.70;60.60;;;;;;5076017;28;20087;-76
2021/07/11 12:48:04;;;;;;;5.28;4.78;;;25.80;60.60;;;;;;5058237;28;20031;-76
2021/07/11 12:50:40;;;;;;;6.97;6.28;;;25.90;60.30;;;;;;5072886;28;20123;-79
2021/07/11 12:53:07;;;;;;;5.78;5.10;;;25.80;59.90;;;;;;5076183;28;20034;-77
2021/07/11 12:55:34;;;;;;;5.53;4.93;;;25.80;60.00;;;;;;5058167;28;20380;-78
2021/07/11 12:58:13;;;;;;;5.45;4.95;;;25.80;59.70;;;;;;5058214;28;20436;-78
2021/07/11 13:00:39;;;;;;;5.15;4.72;;;25.70;59.30;;;;;;5057951;28;20024;-77